createdAt,value
2022-08-21T07:56:57.262Z,34.30
2022-08-21T07:57:51.277Z,19.20
2022-08-21T07:58:51.431Z,11.40
2022-08-21T07:59:51.198Z,12.50
2022-08-21T08:00:51.151Z,12.20
2022-08-21T08:01:51.105Z,13.90
2022-08-21T08:03:02.887Z,13.20
2022-08-21T08:03:51.158Z,17.20
2022-08-21T08:05:01.039Z,12.00
2022-08-21T08:05:51.428Z,9.90
2022-08-21T08:07:05.505Z,11.30
2022-08-21T08:08:08.144Z,11.40
2022-08-21T08:08:51.832Z,10.20
2022-08-21T08:09:52.035Z,10.90
2022-08-21T08:11:07.897Z,11.10
2022-08-21T08:11:51.412Z,10.20
2022-08-21T08:12:51.168Z,9.30
2022-08-21T08:13:52.930Z,10.70
2022-08-21T08:14:51.209Z,10.10
2022-08-21T08:15:50.961Z,11.00
2022-08-21T08:16:50.895Z,11.60
2022-08-21T08:17:50.870Z,10.80
2022-08-21T08:18:50.865Z,8.50
2022-08-21T08:19:51.316Z,10.40
2022-08-21T08:20:51.051Z,11.70
2022-08-21T08:21:50.842Z,11.10
2022-08-21T08:22:50.919Z,10.20
2022-08-21T08:23:50.794Z,11.30
2022-08-21T08:24:50.816Z,10.10
2022-08-21T08:25:50.778Z,12.60
2022-08-21T08:26:54.133Z,9.60
2022-08-21T08:27:50.758Z,9.30
2022-08-21T08:28:51.801Z,10.50
2022-08-21T08:29:50.727Z,9.90
2022-08-21T08:30:52.298Z,9.10
2022-08-21T08:31:50.724Z,10.70
2022-08-21T08:32:50.705Z,9.50
2022-08-21T08:34:01.516Z,10.50
2022-08-21T08:34:51.389Z,12.30
2022-08-21T08:35:50.810Z,9.80
2022-08-21T08:36:50.732Z,11.30
2022-08-21T08:37:52.252Z,9.90
2022-08-21T08:38:50.663Z,8.80
2022-08-21T08:39:50.721Z,18.90
2022-08-21T08:40:50.688Z,34.10
2022-08-21T08:41:50.625Z,35.40
2022-08-21T08:44:04.179Z,49.90
2022-08-21T08:45:04.179Z,32.10
2022-08-21T08:46:03.207Z,11.20
2022-08-21T08:47:13.874Z,12.70
2022-08-21T08:48:03.764Z,15.10
2022-08-21T08:49:03.178Z,11.10
2022-08-21T08:50:03.292Z,11.10
2022-08-21T08:51:03.058Z,12.10
2022-08-21T08:52:03.563Z,10.50
2022-08-21T08:53:13.654Z,9.70
2022-08-21T08:54:03.032Z,12.10
2022-08-21T08:55:03.112Z,10.40
2022-08-21T08:56:13.669Z,8.40
2022-08-21T08:58:38.603Z,26.10
2022-08-21T08:59:16.546Z,16.40
2022-08-21T09:00:27.776Z,12.70
2022-08-21T09:01:29.688Z,17.80
2022-08-21T09:02:17.394Z,20.10
